Time,TemperatureF,DewpointF,PressureIn,WindDirection,WindDirectionDegrees,WindSpeedMPH,WindSpeedGustMPH,Humidity,HourlyPrecipIn,Conditions,Clouds,dailyrainin,SoftwareType,DateUTC
2013-03-31 00:00:00,27.0,22.8,30.11,NW,323,0.0,0.0,84,0.00,,,0.00,Wunderground v.1.15,2013-03-31 04:00:00,
2013-03-31 00:02:00,27.0,22.8,30.12,NW,323,0.0,0.0,84,0.00,,,0.00,Wunderground v.1.15,2013-03-31 04:02:00,
2013-03-31 00:06:00,26.9,22.7,30.11,NW,323,0.0,0.0,84,0.00,,,0.00,Wunderground v.1.15,2013-03-31 04:06:00,
2013-03-31 00:12:00,26.8,22.6,30.11,NW,323,0.0,0.0,84,0.00,,,0.00,Wunderground v.1.15,2013-03-31 04:12:00,
2013-03-31 00:16:00,26.6,22.4,30.11,NW,323,0.0,0.0,84,0.00,,,0.00,Wunderground v.1.15,2013-03-31 04:16:00,
2013-03-31 00:22:00,26.6,22.7,30.11,NW,323,0.0,1.0,85,0.00,,,0.00,Wunderground v.1.15,2013-03-31 04:22:00,
2013-03-31 00:28:00,26.5,22.6,30.10,NW,323,0.0,1.0,85,0.00,,,0.00,Wunderground v.1.15,2013-03-31 04:28:00,
2013-03-31 00:34:00,26.5,22.9,30.10,NW,323,0.0,0.0,86,0.00,,,0.00,Wunderground v.1.15,2013-03-31 04:34:00,
2013-03-31 00:40:00,26.5,22.9,30.11,NW,323,0.0,0.0,86,0.00,,,0.00,Wunderground v.1.15,2013-03-31 04:40:00,
2013-03-31 00:46:00,26.3,22.7,30.11,NW,323,0.0,0.0,86,0.00,,,0.00,Wunderground v.1.15,2013-03-31 04:46:00,
2013-03-31 00:52:00,26.3,22.7,30.11,NW,323,0.0,0.0,86,0.00,,,0.00,Wunderground v.1.15,2013-03-31 04:52:00,
2013-03-31 00:58:00,26.1,22.5,30.11,NW,323,0.0,0.0,86,0.00,,,0.00,Wunderground v.1.15,2013-03-31 04:58:00,
2013-03-31 01:04:00,26.1,22.5,30.11,NW,323,0.0,0.0,86,0.00,,,0.00,Wunderground v.1.15,2013-03-31 05:04:00,
2013-03-31 01:10:00,26.0,22.7,30.11,NW,323,0.0,0.0,87,0.00,,,0.00,Wunderground v.1.15,2013-03-31 05:10:00,
2013-03-31 01:16:00,25.9,22.6,30.11,NW,323,0.0,0.0,87,0.00,,,0.00,Wunderground v.1.15,2013-03-31 05:16:00,
2013-03-31 01:22:00,25.8,22.5,30.11,NW,323,0.0,0.0,87,0.00,,,0.00,Wunderground v.1.15,2013-03-31 05:22:00,
2013-03-31 01:28:00,25.8,22.5,30.11,NW,323,0.0,0.0,87,0.00,,,0.00,Wunderground v.1.15,2013-03-31 05:28:00,
2013-03-31 01:34:00,25.7,22.6,30.11,NW,323,0.0,0.0,88,0.00,,,0.00,Wunderground v.1.15,2013-03-31 05:34:00,
2013-03-31 01:40:00,25.6,22.5,30.10,NW,323,0.0,0.0,88,0.00,,,0.00,Wunderground v.1.15,2013-03-31 05:40:00,
2013-03-31 01:46:00,25.6,22.5,30.11,NW,323,0.0,0.0,88,0.00,,,0.00,Wunderground v.1.15,2013-03-31 05:46:00,
2013-03-31 01:52:00,25.5,22.4,30.11,NW,323,0.0,0.0,88,0.00,,,0.00,Wunderground v.1.15,2013-03-31 05:52:00,
2013-03-31 01:58:00,25.5,22.4,30.10,NW,323,0.0,0.0,88,0.00,,,0.00,Wunderground v.1.15,2013-03-31 05:58:00,
2013-03-31 02:04:00,25.6,22.5,30.10,NW,323,0.0,0.0,88,0.00,,,0.00,Wunderground v.1.15,2013-03-31 06:04:00,
2013-03-31 02:10:00,25.7,22.6,30.10,NW,323,0.0,0.0,88,0.00,,,0.00,Wunderground v.1.15,2013-03-31 06:10:00,
2013-03-31 02:16:00,25.6,22.5,30.10,NW,323,0.0,0.0,88,0.00,,,0.00,Wunderground v.1.15,2013-03-31 06:16:00,
2013-03-31 02:22:00,25.6,22.3,30.10,NW,323,0.0,0.0,87,0.00,,,0.00,Wunderground v.1.15,2013-03-31 06:22:00,
2013-03-31 02:28:00,25.6,22.3,30.10,NW,323,0.0,0.0,87,0.00,,,0.00,Wunderground v.1.15,2013-03-31 06:28:00,
2013-03-31 02:34:00,25.6,22.5,30.10,NW,323,0.0,0.0,88,0.00,,,0.00,Wunderground v.1.15,2013-03-31 06:34:00,
2013-03-31 02:40:00,25.8,22.5,30.10,NW,323,0.0,0.0,87,0.00,,,0.00,Wunderground v.1.15,2013-03-31 06:40:00,
2013-03-31 02:45:00,26.0,22.7,30.09,NW,323,0.0,1.0,87,0.00,,,0.00,Wunderground v.1.15,2013-03-31 06:45:00,
2013-03-31 02:52:00,26.2,22.9,30.09,NW,323,0.0,0.0,87,0.00,,,0.00,Wunderground v.1.15,2013-03-31 06:52:00,
2013-03-31 02:58:00,26.2,22.9,30.09,NW,323,0.0,0.0,87,0.00,,,0.00,Wunderground v.1.15,2013-03-31 06:58:00,
2013-03-31 03:04:00,26.1,22.5,30.09,NW,323,0.0,0.0,86,0.00,,,0.00,Wunderground v.1.15,2013-03-31 07:04:00,
2013-03-31 03:10:00,26.0,22.4,30.09,NW,323,0.0,0.0,86,0.00,,,0.00,Wunderground v.1.15,2013-03-31 07:10:00,
2013-03-31 03:15:00,26.0,22.7,30.08,NW,323,0.0,0.0,87,0.00,,,0.00,Wunderground v.1.15,2013-03-31 07:15:00,
2013-03-31 03:22:00,26.2,22.9,30.08,NW,323,0.0,0.0,87,0.00,,,0.00,Wunderground v.1.15,2013-03-31 07:22:00,
2013-03-31 03:28:00,26.5,23.2,30.08,NW,323,0.0,0.0,87,0.00,,,0.00,Wunderground v.1.15,2013-03-31 07:28:00,
2013-03-31 03:34:00,26.6,23.0,30.08,NW,323,0.0,0.0,86,0.00,,,0.00,Wunderground v.1.15,2013-03-31 07:34:00,
2013-03-31 03:40:00,26.6,23.0,30.07,NW,323,0.0,0.0,86,0.00,,,0.00,Wunderground v.1.15,2013-03-31 07:40:00,
2013-03-31 03:46:00,26.9,23.3,30.07,NW,323,0.0,0.0,86,0.00,,,0.00,Wunderground v.1.15,2013-03-31 07:46:00,
2013-03-31 03:52:00,27.4,25.4,30.07,NW,323,0.0,0.0,92,0.00,,,0.00,Wunderground v.1.15,2013-03-31 07:52:00,
2013-03-31 03:58:00,27.6,23.7,30.06,NW,323,0.0,0.0,85,0.00,,,0.00,Wunderground v.1.15,2013-03-31 07:58:00,
2013-03-31 04:03:00,27.7,23.5,30.06,NW,323,0.0,0.0,84,0.00,,,0.00,Wunderground v.1.15,2013-03-31 08:03:00,
2013-03-31 04:10:00,28.0,23.8,30.06,NW,323,0.0,0.0,84,0.00,,,0.00,Wunderground v.1.15,2013-03-31 08:10:00,
2013-03-31 04:16:00,28.0,23.5,30.06,NW,323,0.0,0.0,83,0.00,,,0.00,Wunderground v.1.15,2013-03-31 08:16:00,
2013-03-31 04:22:00,28.0,23.5,30.05,NW,323,0.0,0.0,83,0.00,,,0.00,Wunderground v.1.15,2013-03-31 08:22:00,
2013-03-31 04:28:00,28.0,23.5,30.05,NW,324,0.0,0.0,83,0.00,,,0.00,Wunderground v.1.15,2013-03-31 08:28:00,
2013-03-31 04:34:00,28.2,23.7,30.05,NW,324,0.0,0.0,83,0.00,,,0.00,Wunderground v.1.15,2013-03-31 08:34:00,
2013-03-31 04:40:00,28.4,23.6,30.04,NW,324,0.0,0.0,82,0.00,,,0.00,Wunderground v.1.15,2013-03-31 08:40:00,
2013-03-31 04:48:00,28.8,24.0,30.04,NW,324,0.0,1.0,82,0.00,,,0.00,Wunderground v.1.15,2013-03-31 08:48:00,
2013-03-31 04:54:00,28.9,24.1,30.04,NW,324,0.0,1.0,82,0.00,,,0.00,Wunderground v.1.15,2013-03-31 08:54:00,
2013-03-31 05:00:00,29.1,24.0,30.04,NW,324,0.0,0.0,81,0.00,,,0.00,Wunderground v.1.15,2013-03-31 09:00:00,
2013-03-31 05:06:00,29.4,24.3,30.03,NW,325,0.0,0.0,81,0.00,,,0.00,Wunderground v.1.15,2013-03-31 09:06:00,
2013-03-31 05:12:00,29.7,24.3,30.03,NW,326,0.0,0.0,80,0.00,,,0.00,Wunderground v.1.15,2013-03-31 09:12:00,
2013-03-31 05:18:00,29.8,24.4,30.03,NW,326,0.0,1.0,80,0.00,,,0.00,Wunderground v.1.15,2013-03-31 09:18:00,
2013-03-31 05:24:00,30.0,24.3,30.03,NW,326,0.0,0.0,79,0.00,,,0.00,Wunderground v.1.15,2013-03-31 09:24:00,
2013-03-31 05:30:00,30.0,24.0,30.03,NW,326,0.0,0.0,78,0.00,,,0.00,Wunderground v.1.15,2013-03-31 09:30:00,
2013-03-31 05:36:00,30.0,24.3,30.02,NW,326,0.0,0.0,79,0.00,,,0.00,Wunderground v.1.15,2013-03-31 09:36:00,
2013-03-31 05:42:00,29.9,24.2,30.03,NW,326,0.0,1.0,79,0.00,,,0.00,Wunderground v.1.15,2013-03-31 09:42:00,
2013-03-31 05:48:00,30.0,24.3,30.03,NW,326,0.0,1.0,79,0.00,,,0.00,Wunderground v.1.15,2013-03-31 09:48:00,
2013-03-31 05:54:00,30.2,24.5,30.02,NW,325,0.0,0.0,79,0.00,,,0.00,Wunderground v.1.15,2013-03-31 09:54:00,
2013-03-31 05:59:00,30.2,24.5,30.02,NW,325,0.0,0.0,79,0.00,,,0.00,Wunderground v.1.15,2013-03-31 09:59:00,
2013-03-31 07:48:00,32.4,26.0,30.00,ESE,119,1.0,2.0,77,0.00,,,0.00,Wunderground v.1.15,2013-03-31 11:48:00,
2013-03-31 07:54:00,32.7,26.3,30.00,ESE,119,0.0,0.0,77,0.00,,,0.00,Wunderground v.1.15,2013-03-31 11:54:00,
2013-03-31 07:59:00,33.2,26.8,30.00,SE,126,1.0,1.0,77,0.00,,,0.00,Wunderground v.1.15,2013-03-31 11:59:00,
2013-03-31 08:06:00,33.6,26.5,29.99,SE,134,2.0,4.0,75,0.00,,,0.00,Wunderground v.1.15,2013-03-31 12:06:00,
2013-03-31 08:12:00,34.1,27.0,29.99,SE,128,2.0,3.0,75,0.00,,,0.00,Wunderground v.1.15,2013-03-31 12:12:00,
2013-03-31 08:18:00,34.6,27.2,29.99,SE,140,2.0,3.0,74,0.00,,,0.00,Wunderground v.1.15,2013-03-31 12:18:00,
2013-03-31 08:24:00,35.0,27.5,29.99,SE,124,2.0,3.0,74,0.00,,,0.00,Wunderground v.1.15,2013-03-31 12:24:00,
2013-03-31 08:30:00,35.4,27.9,29.99,SE,125,2.0,2.0,74,0.00,,,0.00,Wunderground v.1.15,2013-03-31 12:30:00,
2013-03-31 08:35:00,35.8,27.7,29.99,SE,132,1.0,4.0,72,0.00,,,0.00,Wunderground v.1.15,2013-03-31 12:35:00,
2013-03-31 08:41:00,36.4,27.9,29.99,East,84,1.0,1.0,71,0.00,,,0.00,Wunderground v.1.15,2013-03-31 12:41:00,
2013-03-31 08:47:00,36.9,28.4,29.99,East,92,1.0,2.0,71,0.00,,,0.00,Wunderground v.1.15,2013-03-31 12:47:00,
2013-03-31 08:54:00,37.5,28.9,29.98,SE,133,1.0,3.0,71,0.00,,,0.00,Wunderground v.1.15,2013-03-31 12:54:00,
2013-03-31 09:00:00,38.0,29.1,29.98,SE,129,2.0,3.0,70,0.00,,,0.00,Wunderground v.1.15,2013-03-31 13:00:00,
2013-03-31 09:06:00,38.5,28.9,29.98,SE,138,2.0,3.0,68,0.00,,,0.00,Wunderground v.1.15,2013-03-31 13:06:00,
2013-03-31 09:12:00,38.8,29.1,29.98,East,89,2.0,2.0,68,0.00,,,0.00,Wunderground v.1.15,2013-03-31 13:12:00,
2013-03-31 09:18:00,39.6,29.9,29.98,East,87,1.0,2.0,68,0.00,,,0.00,Wunderground v.1.15,2013-03-31 13:18:00,
2013-03-31 09:24:00,40.4,29.6,29.97,East,98,1.0,2.0,65,0.00,,,0.00,Wunderground v.1.15,2013-03-31 13:24:00,
2013-03-31 09:30:00,41.3,30.0,29.97,ESE,120,1.0,1.0,64,0.00,,,0.00,Wunderground v.1.15,2013-03-31 13:30:00,
2013-03-31 09:36:00,42.3,30.6,29.97,SE,134,2.0,3.0,63,0.00,,,0.00,Wunderground v.1.15,2013-03-31 13:36:00,
2013-03-31 09:42:00,43.4,30.4,29.96,SSE,151,2.0,2.0,60,0.00,,,0.00,Wunderground v.1.15,2013-03-31 13:42:00,
2013-03-31 09:48:00,44.1,28.9,29.96,SE,132,4.0,4.0,55,0.00,,,0.00,Wunderground v.1.15,2013-03-31 13:48:00,
2013-03-31 09:54:00,44.8,30.0,29.96,SSE,165,5.0,5.0,56,0.00,,,0.00,Wunderground v.1.15,2013-03-31 13:54:00,
2013-03-31 10:00:00,45.4,30.2,29.95,SE,132,5.0,6.0,55,0.00,,,0.00,Wunderground v.1.15,2013-03-31 14:00:00,
2013-03-31 10:06:00,46.0,29.8,29.95,SSE,162,5.0,6.0,53,0.00,,,0.00,Wunderground v.1.15,2013-03-31 14:06:00,
2013-03-31 10:12:00,46.6,29.9,29.95,SE,137,4.0,4.0,52,0.00,,,0.00,Wunderground v.1.15,2013-03-31 14:12:00,
2013-03-31 10:18:00,47.5,31.2,29.94,SE,143,4.0,4.0,53,0.00,,,0.00,Wunderground v.1.15,2013-03-31 14:18:00,
2013-03-31 10:24:00,48.2,32.8,29.94,SE,126,4.0,5.0,55,0.00,,,0.00,Wunderground v.1.15,2013-03-31 14:24:00,
2013-03-31 10:30:00,48.8,31.0,29.93,SSE,166,5.0,10.0,50,0.00,,,0.00,Wunderground v.1.15,2013-03-31 14:30:00,
2013-03-31 10:36:00,49.4,31.0,29.93,South,173,7.0,10.0,49,0.00,,,0.00,Wunderground v.1.15,2013-03-31 14:36:00,
2013-03-31 10:42:00,49.8,31.4,29.92,South,177,7.0,9.0,49,0.00,,,0.00,Wunderground v.1.15,2013-03-31 14:42:00,
2013-03-31 10:48:00,49.9,31.5,29.92,SSE,155,8.0,13.0,49,0.00,,,0.00,Wunderground v.1.15,2013-03-31 14:48:00,
2013-03-31 10:54:00,50.1,30.6,29.92,South,189,8.0,15.0,47,0.00,,,0.00,Wunderground v.1.15,2013-03-31 14:54:00,
2013-03-31 11:00:00,50.0,31.6,29.92,South,184,10.0,12.0,49,0.00,,,0.00,Wunderground v.1.15,2013-03-31 15:00:00,
2013-03-31 11:05:00,50.2,31.8,29.91,South,171,9.0,12.0,49,0.00,,,0.00,Wunderground v.1.15,2013-03-31 15:05:00,
2013-03-31 11:12:00,50.6,31.6,29.91,SE,136,7.0,9.0,48,0.00,,,0.00,Wunderground v.1.15,2013-03-31 15:12:00,
2013-03-31 11:18:00,50.7,30.7,29.90,South,181,8.0,14.0,46,0.00,,,0.00,Wunderground v.1.15,2013-03-31 15:18:00,
2013-03-31 11:24:00,50.8,30.7,29.91,South,187,9.0,9.0,46,0.00,,,0.00,Wunderground v.1.15,2013-03-31 15:24:00,
2013-03-31 11:29:00,51.1,30.5,29.90,SE,139,8.0,9.0,45,0.00,,,0.00,Wunderground v.1.15,2013-03-31 15:29:00,
2013-03-31 11:35:00,51.7,32.6,29.90,SSE,167,8.0,11.0,48,0.00,,,0.00,Wunderground v.1.15,2013-03-31 15:35:00,
2013-03-31 11:41:00,51.9,31.2,29.89,SSE,163,9.0,10.0,45,0.00,,,0.00,Wunderground v.1.15,2013-03-31 15:41:00,
2013-03-31 11:48:00,52.3,32.1,29.89,SSE,160,8.0,12.0,46,0.00,,,0.00,Wunderground v.1.15,2013-03-31 15:48:00,
2013-03-31 11:54:00,52.3,30.4,29.88,South,184,7.0,9.0,43,0.00,,,0.00,Wunderground v.1.15,2013-03-31 15:54:00,
2013-03-31 12:00:00,52.4,33.3,29.88,South,170,8.0,14.0,48,0.00,,,0.00,Wunderground v.1.15,2013-03-31 16:00:00,
2013-03-31 12:08:00,52.5,32.8,29.87,SSE,159,10.0,14.0,47,0.00,,,0.00,Wunderground v.1.15,2013-03-31 16:08:00,
2013-03-31 12:14:00,53.3,33.6,29.87,South,187,9.0,16.0,47,0.00,,,0.00,Wunderground v.1.15,2013-03-31 16:14:00,
2013-03-31 12:20:00,53.3,33.0,29.86,South,183,12.0,17.0,46,0.00,,,0.00,Wunderground v.1.15,2013-03-31 16:20:00,
2013-03-31 12:26:00,53.7,33.4,29.86,SSE,168,13.0,22.0,46,0.00,,,0.00,Wunderground v.1.15,2013-03-31 16:26:00,
2013-03-31 12:32:00,53.7,33.4,29.86,SSW,197,13.0,18.0,46,0.00,,,0.00,Wunderground v.1.15,2013-03-31 16:32:00,
2013-03-31 12:38:00,53.3,33.6,29.85,SSE,168,14.0,18.0,47,0.00,,,0.00,Wunderground v.1.15,2013-03-31 16:38:00,
2013-03-31 12:44:00,53.1,32.3,29.85,South,178,14.0,19.0,45,0.00,,,0.00,Wunderground v.1.15,2013-03-31 16:44:00,
2013-03-31 12:50:00,53.2,31.8,29.85,South,188,13.0,18.0,44,0.00,,,0.00,Wunderground v.1.15,2013-03-31 16:50:00,
2013-03-31 12:56:00,53.2,32.9,29.85,South,174,13.0,18.0,46,0.00,,,0.00,Wunderground v.1.15,2013-03-31 16:56:00,
2013-03-31 13:02:00,53.5,33.2,29.84,SE,143,11.0,11.0,46,0.00,,,0.00,Wunderground v.1.15,2013-03-31 17:02:00,
2013-03-31 13:08:00,53.7,33.9,29.84,SSE,161,11.0,11.0,47,0.00,,,0.00,Wunderground v.1.15,2013-03-31 17:08:00,
2013-03-31 13:14:00,53.8,32.9,29.84,South,186,12.0,20.0,45,0.00,,,0.00,Wunderground v.1.15,2013-03-31 17:14:00,
2013-03-31 13:20:00,53.9,33.6,29.83,SSE,163,12.0,12.0,46,0.00,,,0.00,Wunderground v.1.15,2013-03-31 17:20:00,
2013-03-31 13:26:00,54.1,33.8,29.83,South,172,11.0,18.0,46,0.00,,,0.00,Wunderground v.1.15,2013-03-31 17:26:00,
2013-03-31 13:32:00,54.5,33.6,29.83,South,176,12.0,23.0,45,0.00,,,0.00,Wunderground v.1.15,2013-03-31 17:32:00,
2013-03-31 13:38:00,54.5,34.7,29.83,SSE,167,17.0,23.0,47,0.00,,,0.00,Wunderground v.1.15,2013-03-31 17:38:00,
2013-03-31 13:44:00,54.0,34.7,29.83,SSW,194,19.0,19.0,48,0.00,,,0.00,Wunderground v.1.15,2013-03-31 17:44:00,
2013-03-31 13:50:00,53.8,34.6,29.83,South,190,17.0,17.0,48,0.00,,,0.00,Wunderground v.1.15,2013-03-31 17:50:00,
2013-03-31 13:56:00,53.7,36.0,29.82,South,184,17.0,25.0,51,0.00,,,0.00,Wunderground v.1.15,2013-03-31 17:56:00,
2013-03-31 14:02:00,53.6,36.9,29.82,South,183,18.0,18.0,53,0.00,,,0.00,Wunderground v.1.15,2013-03-31 18:02:00,
2013-03-31 14:08:00,53.6,36.4,29.82,South,173,14.0,18.0,52,0.00,,,0.00,Wunderground v.1.15,2013-03-31 18:08:00,
2013-03-31 14:14:00,53.3,35.6,29.82,South,171,17.0,26.0,51,0.00,,,0.00,Wunderground v.1.15,2013-03-31 18:14:00,
2013-03-31 14:20:00,53.1,35.9,29.81,South,175,16.0,16.0,52,0.00,,,0.00,Wunderground v.1.15,2013-03-31 18:20:00,
2013-03-31 14:26:00,52.8,36.1,29.82,South,181,16.0,26.0,53,0.00,,,0.00,Wunderground v.1.15,2013-03-31 18:26:00,
2013-03-31 14:32:00,52.4,36.2,29.82,South,173,17.0,17.0,54,0.00,,,0.00,Wunderground v.1.15,2013-03-31 18:32:00,
2013-03-31 14:38:00,52.3,37.1,29.82,SSW,198,16.0,19.0,56,0.00,,,0.00,Wunderground v.1.15,2013-03-31 18:38:00,
2013-03-31 14:44:00,51.9,36.2,29.82,South,183,15.0,16.0,55,0.00,,,0.00,Wunderground v.1.15,2013-03-31 18:44:00,
2013-03-31 14:50:00,51.7,36.9,29.82,South,185,14.0,14.0,57,0.00,,,0.00,Wunderground v.1.15,2013-03-31 18:50:00,
2013-03-31 14:56:00,50.9,38.7,29.82,South,178,16.0,25.0,63,0.00,,,0.00,Wunderground v.1.15,2013-03-31 18:56:00,
2013-03-31 15:02:00,49.6,39.1,29.82,South,184,20.0,22.0,67,0.00,,,0.00,Wunderground v.1.15,2013-03-31 19:02:00,
2013-03-31 15:08:00,49.0,39.3,29.82,South,188,17.0,22.0,69,0.00,,,0.00,Wunderground v.1.15,2013-03-31 19:08:00,
2013-03-31 15:14:00,48.3,40.0,29.82,South,173,17.0,21.0,73,0.00,,,0.00,Wunderground v.1.15,2013-03-31 19:14:00,
2013-03-31 15:20:00,47.3,40.1,29.82,SSW,195,17.0,17.0,76,0.00,,,0.00,Wunderground v.1.15,2013-03-31 19:20:00,
2013-03-31 15:26:00,46.6,40.4,29.82,South,186,15.0,17.0,79,0.00,,,0.00,Wunderground v.1.15,2013-03-31 19:26:00,
2013-03-31 15:32:00,46.2,41.0,29.82,South,182,13.0,14.0,82,0.00,,,0.00,Wunderground v.1.15,2013-03-31 19:32:00,
2013-03-31 15:38:00,46.0,41.1,29.82,South,184,12.0,15.0,83,0.00,,,0.01,Wunderground v.1.15,2013-03-31 19:38:00,
2013-03-31 15:44:00,45.7,41.1,29.82,SSW,209,12.0,16.0,84,0.00,,,0.01,Wunderground v.1.15,2013-03-31 19:44:00,
2013-03-31 15:50:00,45.4,41.2,29.82,South,187,12.0,12.0,85,0.00,,,0.01,Wunderground v.1.15,2013-03-31 19:50:00,
2013-03-31 15:56:00,45.3,41.4,29.82,South,187,9.0,14.0,86,0.04,,,0.02,Wunderground v.1.15,2013-03-31 19:56:00,
2013-03-31 16:02:00,45.1,41.2,29.82,South,170,10.0,10.0,86,0.04,,,0.02,Wunderground v.1.15,2013-03-31 20:02:00,
2013-03-31 16:08:00,44.9,41.3,29.82,South,180,10.0,14.0,87,0.04,,,0.02,Wunderground v.1.15,2013-03-31 20:08:00,
2013-03-31 16:14:00,44.7,41.1,29.82,South,175,9.0,9.0,87,0.00,,,0.02,Wunderground v.1.15,2013-03-31 20:14:00,
2013-03-31 16:20:00,44.5,40.9,29.82,South,184,8.0,8.0,87,0.00,,,0.02,Wunderground v.1.15,2013-03-31 20:20:00,
2013-03-31 16:26:00,44.3,40.7,29.82,South,178,10.0,11.0,87,0.00,,,0.03,Wunderground v.1.15,2013-03-31 20:26:00,
2013-03-31 16:32:00,44.2,40.6,29.82,South,169,11.0,11.0,87,0.00,,,0.03,Wunderground v.1.15,2013-03-31 20:32:00,
2013-03-31 16:38:00,44.1,40.8,29.81,South,175,8.0,11.0,88,0.00,,,0.03,Wunderground v.1.15,2013-03-31 20:38:00,
2013-03-31 16:44:00,44.1,40.8,29.81,South,182,6.0,9.0,88,0.00,,,0.03,Wunderground v.1.15,2013-03-31 20:44:00,
2013-03-31 16:49:00,44.1,40.8,29.81,ESE,123,6.0,7.0,88,0.00,,,0.03,Wunderground v.1.15,2013-03-31 20:49:00,
2013-03-31 16:56:00,44.1,40.8,29.81,South,172,5.0,7.0,88,0.00,,,0.03,Wunderground v.1.15,2013-03-31 20:56:00,
2013-03-31 17:02:00,44.0,40.7,29.81,SSE,153,5.0,5.0,88,0.00,,,0.03,Wunderground v.1.15,2013-03-31 21:02:00,
2013-03-31 17:08:00,43.9,40.6,29.80,SE,138,4.0,5.0,88,0.00,,,0.03,Wunderground v.1.15,2013-03-31 21:08:00,
2013-03-31 17:14:00,43.8,40.5,29.80,SE,138,3.0,3.0,88,0.00,,,0.03,Wunderground v.1.15,2013-03-31 21:14:00,
2013-03-31 17:20:00,43.8,40.8,29.79,South,182,2.0,4.0,89,0.00,,,0.03,Wunderground v.1.15,2013-03-31 21:20:00,
2013-03-31 17:26:00,43.8,40.8,29.78,SE,139,2.0,4.0,89,0.00,,,0.04,Wunderground v.1.15,2013-03-31 21:26:00,
2013-03-31 17:32:00,43.8,40.8,29.78,SSE,154,2.0,2.0,89,0.00,,,0.04,Wunderground v.1.15,2013-03-31 21:32:00,
2013-03-31 17:38:00,43.8,40.8,29.78,SSE,154,1.0,2.0,89,0.00,,,0.04,Wunderground v.1.15,2013-03-31 21:38:00,
2013-03-31 17:44:00,43.8,40.8,29.77,SSE,154,0.0,0.0,89,0.00,,,0.04,Wunderground v.1.15,2013-03-31 21:44:00,
2013-03-31 17:50:00,43.8,40.8,29.77,SSE,154,0.0,0.0,89,0.00,,,0.04,Wunderground v.1.15,2013-03-31 21:50:00,
2013-03-31 17:56:00,43.9,40.9,29.77,SSE,154,0.0,2.0,89,0.00,,,0.04,Wunderground v.1.15,2013-03-31 21:56:00,
2013-03-31 18:02:00,43.9,40.9,29.77,SSE,152,0.0,1.0,89,0.00,,,0.04,Wunderground v.1.15,2013-03-31 22:02:00,
2013-03-31 18:08:00,44.0,41.0,29.77,SSE,153,0.0,1.0,89,0.00,,,0.04,Wunderground v.1.15,2013-03-31 22:08:00,
2013-03-31 18:14:00,44.1,41.1,29.77,SSE,153,0.0,0.0,89,0.00,,,0.04,Wunderground v.1.15,2013-03-31 22:14:00,
2013-03-31 18:20:00,44.3,41.3,29.76,SSE,153,0.0,0.0,89,0.00,,,0.04,Wunderground v.1.15,2013-03-31 22:20:00,
2013-03-31 18:25:00,44.3,41.3,29.76,SSE,153,0.0,0.0,89,0.00,,,0.04,Wunderground v.1.15,2013-03-31 22:25:00,
2013-03-31 18:32:00,44.3,41.3,29.75,SSE,153,0.0,0.0,89,0.00,,,0.04,Wunderground v.1.15,2013-03-31 22:32:00,
2013-03-31 18:38:00,44.2,41.2,29.75,SSE,153,0.0,1.0,89,0.00,,,0.04,Wunderground v.1.15,2013-03-31 22:38:00,
2013-03-31 18:44:00,44.2,41.2,29.74,SE,132,0.0,0.0,89,0.00,,,0.04,Wunderground v.1.15,2013-03-31 22:44:00,
2013-03-31 18:50:00,44.1,41.1,29.74,SE,129,1.0,3.0,89,0.00,,,0.04,Wunderground v.1.15,2013-03-31 22:50:00,
2013-03-31 18:56:00,44.0,40.7,29.74,SE,127,1.0,3.0,88,0.00,,,0.04,Wunderground v.1.15,2013-03-31 22:56:00,
2013-03-31 19:02:00,44.0,40.7,29.74,SE,142,1.0,2.0,88,0.00,,,0.04,Wunderground v.1.15,2013-03-31 23:02:00,
2013-03-31 19:08:00,44.0,40.7,29.73,SE,144,2.0,4.0,88,0.00,,,0.04,Wunderground v.1.15,2013-03-31 23:08:00,
2013-03-31 19:13:00,44.2,40.9,29.74,SSE,153,4.0,5.0,88,0.00,,,0.04,Wunderground v.1.15,2013-03-31 23:13:00,
2013-03-31 19:20:00,44.5,40.9,29.73,South,178,4.0,4.0,87,0.00,,,0.04,Wunderground v.1.15,2013-03-31 23:20:00,
2013-03-31 19:26:00,44.7,40.8,29.73,SE,135,3.0,4.0,86,0.00,,,0.04,Wunderground v.1.15,2013-03-31 23:26:00,
2013-03-31 19:32:00,44.9,40.7,29.73,SSE,154,3.0,5.0,85,0.00,,,0.04,Wunderground v.1.15,2013-03-31 23:32:00,
2013-03-31 19:38:00,45.0,40.5,29.72,SE,126,3.0,5.0,84,0.00,,,0.04,Wunderground v.1.15,2013-03-31 23:38:00,
2013-03-31 19:44:00,45.1,40.6,29.73,SSE,147,4.0,6.0,84,0.00,,,0.04,Wunderground v.1.15,2013-03-31 23:44:00,
2013-03-31 19:50:00,45.1,40.6,29.73,SE,144,4.0,4.0,84,0.00,,,0.04,Wunderground v.1.15,2013-03-31 23:50:00,
2013-03-31 19:56:00,45.2,40.7,29.72,ESE,123,3.0,5.0,84,0.00,,,0.04,Wunderground v.1.15,2013-03-31 23:56:00,
2013-03-31 20:02:00,45.2,40.7,29.72,SE,142,2.0,2.0,84,0.00,,,0.04,Wunderground v.1.15,2013-04-01 00:02:00,
2013-03-31 20:07:00,45.1,40.6,29.72,SE,129,2.0,5.0,84,0.00,,,0.04,Wunderground v.1.15,2013-04-01 00:07:00,
2013-03-31 20:14:00,45.0,40.5,29.72,SE,146,3.0,4.0,84,0.00,,,0.04,Wunderground v.1.15,2013-04-01 00:14:00,
2013-03-31 20:19:00,44.9,40.4,29.72,SE,135,4.0,4.0,84,0.00,,,0.04,Wunderground v.1.15,2013-04-01 00:19:00,
2013-03-31 20:26:00,44.9,40.0,29.72,SE,138,4.0,4.0,83,0.00,,,0.04,Wunderground v.1.15,2013-04-01 00:26:00,
2013-03-31 20:32:00,44.9,40.0,29.72,SSE,149,4.0,4.0,83,0.00,,,0.04,Wunderground v.1.15,2013-04-01 00:32:00,
2013-03-31 20:38:00,44.9,40.0,29.72,SE,134,3.0,4.0,83,0.00,,,0.04,Wunderground v.1.15,2013-04-01 00:38:00,
2013-03-31 20:44:00,45.0,40.1,29.73,SE,130,3.0,5.0,83,0.00,,,0.04,Wunderground v.1.15,2013-04-01 00:44:00,
2013-03-31 20:50:00,44.9,40.0,29.72,SE,140,4.0,4.0,83,0.00,,,0.04,Wunderground v.1.15,2013-04-01 00:50:00,
2013-03-31 20:56:00,44.8,40.0,29.73,South,171,4.0,5.0,83,0.00,,,0.04,Wunderground v.1.15,2013-04-01 00:56:00,
2013-03-31 21:02:00,44.7,40.2,29.73,SSE,150,3.0,3.0,84,0.00,,,0.04,Wunderground v.1.15,2013-04-01 01:02:00,
2013-03-31 21:08:00,44.5,40.0,29.73,SSE,159,3.0,3.0,84,0.00,,,0.04,Wunderground v.1.15,2013-04-01 01:08:00,
2013-03-31 21:14:00,44.3,40.1,29.73,ESE,120,3.0,5.0,85,0.00,,,0.04,Wunderground v.1.15,2013-04-01 01:14:00,
2013-03-31 21:20:00,44.2,40.0,29.73,SSE,165,3.0,3.0,85,0.00,,,0.04,Wunderground v.1.15,2013-04-01 01:20:00,
2013-03-31 21:26:00,44.0,40.1,29.73,South,173,4.0,6.0,86,0.00,,,0.04,Wunderground v.1.15,2013-04-01 01:26:00,
2013-03-31 21:32:00,44.0,40.1,29.74,South,178,6.0,10.0,86,0.00,,,0.04,Wunderground v.1.15,2013-04-01 01:32:00,
2013-03-31 21:38:00,43.8,39.9,29.73,SE,145,6.0,10.0,86,0.00,,,0.04,Wunderground v.1.15,2013-04-01 01:38:00,
2013-03-31 21:44:00,43.7,39.8,29.73,SSE,164,5.0,7.0,86,0.00,,,0.04,Wunderground v.1.15,2013-04-01 01:44:00,
2013-03-31 21:50:00,43.5,39.6,29.73,SSE,166,6.0,6.0,86,0.00,,,0.04,Wunderground v.1.15,2013-04-01 01:50:00,
2013-03-31 21:56:00,43.4,39.5,29.73,SE,132,6.0,9.0,86,0.00,,,0.04,Wunderground v.1.15,2013-04-01 01:56:00,
2013-03-31 22:02:00,43.2,39.3,29.73,SSE,165,5.0,6.0,86,0.00,,,0.04,Wunderground v.1.15,2013-04-01 02:02:00,
2013-03-31 22:08:00,43.1,39.5,29.73,SE,135,5.0,9.0,87,0.00,,,0.04,Wunderground v.1.15,2013-04-01 02:08:00,
2013-03-31 22:14:00,43.0,39.4,29.73,SE,144,5.0,5.0,87,0.00,,,0.04,Wunderground v.1.15,2013-04-01 02:14:00,
2013-03-31 22:20:00,42.9,39.3,29.73,SSE,156,4.0,4.0,87,0.00,,,0.04,Wunderground v.1.15,2013-04-01 02:20:00,
2013-03-31 22:26:00,42.8,39.2,29.73,SE,140,5.0,6.0,87,0.00,,,0.04,Wunderground v.1.15,2013-04-01 02:26:00,
2013-03-31 22:32:00,42.7,39.1,29.73,SE,146,4.0,4.0,87,0.00,,,0.04,Wunderground v.1.15,2013-04-01 02:32:00,
2013-03-31 22:38:00,42.5,39.2,29.72,SSE,150,2.0,5.0,88,0.00,,,0.04,Wunderground v.1.15,2013-04-01 02:38:00,
2013-03-31 22:44:00,42.4,39.1,29.72,SE,132,3.0,4.0,88,0.00,,,0.04,Wunderground v.1.15,2013-04-01 02:44:00,
2013-03-31 22:50:00,42.3,39.0,29.72,SSE,149,2.0,3.0,88,0.00,,,0.04,Wunderground v.1.15,2013-04-01 02:50:00,
2013-03-31 22:56:00,42.2,38.9,29.72,SE,140,1.0,3.0,88,0.00,,,0.04,Wunderground v.1.15,2013-04-01 02:56:00,
2013-03-31 23:02:00,42.1,38.8,29.71,SE,140,1.0,2.0,88,0.00,,,0.04,Wunderground v.1.15,2013-04-01 03:02:00,
2013-03-31 23:08:00,42.0,38.7,29.71,SE,142,1.0,4.0,88,0.00,,,0.04,Wunderground v.1.15,2013-04-01 03:08:00,
2013-03-31 23:14:00,41.9,38.6,29.71,SE,144,1.0,5.0,88,0.00,,,0.04,Wunderground v.1.15,2013-04-01 03:14:00,
2013-03-31 23:20:00,41.8,38.5,29.71,SE,144,1.0,1.0,88,0.00,,,0.04,Wunderground v.1.15,2013-04-01 03:20:00,
2013-03-31 23:25:00,41.8,38.8,29.70,SE,143,1.0,3.0,89,0.00,,,0.04,Wunderground v.1.15,2013-04-01 03:25:00,
2013-03-31 23:32:00,41.7,38.7,29.70,SE,143,1.0,1.0,89,0.00,,,0.04,Wunderground v.1.15,2013-04-01 03:32:00,
2013-03-31 23:38:00,41.6,38.6,29.70,SE,143,0.0,1.0,89,0.00,,,0.05,Wunderground v.1.15,2013-04-01 03:38:00,
2013-03-31 23:44:00,41.6,38.6,29.70,SE,142,0.0,0.0,89,0.00,,,0.05,Wunderground v.1.15,2013-04-01 03:44:00,
2013-03-31 23:50:00,41.4,38.4,29.69,SE,142,0.0,0.0,89,0.00,,,0.05,Wunderground v.1.15,2013-04-01 03:50:00,
2013-03-31 23:56:00,41.3,38.3,29.69,SE,143,0.0,1.0,89,0.00,,,0.05,Wunderground v.1.15,2013-04-01 03:56:00,